Time;durP1;ratioP1;P1;durP2;ratioP2;P2;SDS_P1;SDS_P2;PMS_P1;PMS_P2;Temp;Humidity;BMP_temperature;BMP_pressure;BME280_temperature;BME280_humidity;BME280_pressure;Samples;Min_cycle;Max_cycle;Signal;HPM_P1;HPM_P2
2022/03/10 00:01:56;;;;;;;48.05;8.55;;;;;;;2.43;100.00;98816.66;5000146;28;20738;-59
2022/03/10 00:04:22;;;;;;;63.75;11.63;;;;;;;1.73;100.00;98813.66;4999429;28;20060;-56
2022/03/10 00:06:47;;;;;;;47.08;8.43;;;;;;;2.36;100.00;98820.91;5000106;28;20132;-59
2022/03/10 00:09:13;;;;;;;55.45;8.30;;;;;;;2.65;100.00;98817.63;5001000;28;20028;-59
2022/03/10 00:11:38;;;;;;;56.28;10.45;;;;;;;2.33;100.00;98820.03;4998510;28;20038;-57
2022/03/10 00:14:03;;;;;;;53.10;10.27;;;;;;;2.04;100.00;98826.75;5003848;28;20026;-56
2022/03/10 00:16:29;;;;;;;47.22;10.52;;;;;;;1.93;100.00;98818.97;5001613;28;20029;-56
2022/03/10 00:18:54;;;;;;;48.75;8.85;;;;;;;2.18;100.00;98823.41;5005922;28;20032;-57
2022/03/10 00:21:19;;;;;;;45.15;8.35;;;;;;;2.47;100.00;98823.56;4999031;28;20059;-59
2022/03/10 00:23:45;;;;;;;41.83;7.95;;;;;;;2.20;100.00;98819.97;5004703;28;20044;-58
2022/03/10 00:26:10;;;;;;;43.88;7.47;;;;;;;2.79;100.00;98826.25;5003581;28;20038;-58
2022/03/10 00:28:35;;;;;;;34.83;6.15;;;;;;;3.24;100.00;98828.97;5003860;28;20121;-56
2022/03/10 00:31:01;;;;;;;47.95;9.35;;;;;;;2.32;100.00;98821.75;5004503;28;20046;-59
2022/03/10 00:33:26;;;;;;;46.97;10.05;;;;;;;2.14;100.00;98826.81;5006512;28;20080;-58
2022/03/10 00:35:52;;;;;;;41.35;9.30;;;;;;;1.98;100.00;98823.25;5003114;28;20085;-57
2022/03/10 00:38:18;;;;;;;38.78;8.55;;;;;;;1.92;100.00;98829.22;5003647;28;20063;-58
2022/03/10 00:40:45;;;;;;;47.92;8.80;;;;;;;1.52;100.00;98816.06;5005786;28;20065;-58
2022/03/10 00:43:11;;;;;;;38.03;8.15;;;;;;;1.80;100.00;98824.00;5005440;28;20083;-57
2022/03/10 00:45:37;;;;;;;50.95;9.45;;;;;;;1.67;100.00;98823.91;5002637;28;20660;-59
2022/03/10 00:48:02;;;;;;;43.08;8.82;;;;;;;1.61;100.00;98818.72;5005800;28;20044;-58
2022/03/10 00:50:28;;;;;;;43.85;9.48;;;;;;;1.58;100.00;98818.69;5006001;28;20444;-58
2022/03/10 00:52:53;;;;;;;35.60;7.65;;;;;;;1.86;100.00;98824.06;5004349;28;20026;-58
2022/03/10 00:55:19;;;;;;;31.67;6.55;;;;;;;2.06;100.00;98819.00;5003804;28;20627;-57
2022/03/10 00:57:45;;;;;;;43.92;8.70;;;;;;;2.25;100.00;98822.59;5005285;28;20449;-58
2022/03/10 01:00:11;;;;;;;36.10;6.32;;;;;;;2.22;100.00;98819.97;5005945;28;20045;-58
2022/03/10 01:02:37;;;;;;;40.95;7.97;;;;;;;1.46;100.00;98819.44;5006821;28;20045;-58
2022/03/10 01:05:03;;;;;;;31.35;6.20;;;;;;;2.05;100.00;98820.72;5001599;28;20451;-58
2022/03/10 01:07:29;;;;;;;40.65;8.70;;;;;;;1.47;100.00;98816.03;5004300;28;20065;-57
2022/03/10 01:09:54;;;;;;;33.22;7.60;;;;;;;1.72;100.00;98821.38;5005017;28;20676;-58
2022/03/10 01:12:19;;;;;;;30.60;5.72;;;;;;;2.19;100.00;98822.53;5005195;28;20347;-58
2022/03/10 01:14:45;;;;;;;50.30;7.85;;;;;;;1.77;100.00;98824.00;5003027;28;20408;-57
2022/03/10 01:17:10;;;;;;;34.20;7.57;;;;;;;1.73;100.00;98818.81;5004766;28;20779;-58
2022/03/10 01:19:35;;;;;;;36.25;8.60;;;;;;;1.52;100.00;98827.19;5006117;28;20033;-58
2022/03/10 01:22:01;;;;;;;49.17;9.98;;;;;;;0.94;100.00;98830.09;5004979;28;20172;-58
2022/03/10 01:24:27;;;;;;;40.42;7.78;;;;;;;1.55;100.00;98831.53;5008760;28;20041;-57
2022/03/10 01:26:52;;;;;;;48.17;8.82;;;;;;;1.11;100.00;98837.09;5007266;28;20592;-56
2022/03/10 01:29:18;;;;;;;41.45;8.60;;;;;;;1.27;100.00;98828.72;5008980;28;20052;-57
2022/03/10 01:31:43;;;;;;;38.70;8.32;;;;;;;1.11;100.00;98829.41;5005881;28;20442;-58
2022/03/10 01:34:09;;;;;;;44.72;8.30;;;;;;;1.41;100.00;98826.25;5006694;28;20412;-57
2022/03/10 01:36:34;;;;;;;37.60;7.45;;;;;;;1.30;100.00;98833.84;5007085;28;20136;-56
2022/03/10 01:39:04;;;;;;;44.28;7.78;;;;;;;1.50;100.00;98825.47;5008726;28;20040;-58
2022/03/10 01:41:29;;;;;;;45.63;7.55;;;;;;;1.63;100.00;98826.44;5009719;28;20069;-57
2022/03/10 01:44:06;;;;;;;44.75;7.30;;;;;;;1.38;100.00;98830.50;5006836;28;20121;-57
2022/03/10 01:46:32;;;;;;;42.42;9.15;;;;;;;0.99;100.00;98824.13;5007367;28;20048;-58
2022/03/10 01:48:57;;;;;;;33.90;6.30;;;;;;;1.70;100.00;98829.06;5007258;28;20067;-58
2022/03/10 01:51:24;;;;;;;49.28;9.50;;;;;;;1.01;100.00;98832.72;5008742;28;20045;-58
2022/03/10 01:53:50;;;;;;;39.40;9.40;;;;;;;0.85;100.00;98830.00;5007485;28;20168;-59
2022/03/10 01:56:17;;;;;;;46.88;9.63;;;;;;;1.03;100.00;98833.59;5007488;28;20052;-59
2022/03/10 01:58:44;;;;;;;40.80;7.90;;;;;;;1.08;100.00;98837.06;5006556;28;20022;-58
2022/03/10 02:01:10;;;;;;;36.15;6.78;;;;;;;1.43;100.00;98839.13;5007003;28;20289;-56
2022/03/10 02:03:37;;;;;;;37.92;6.68;;;;;;;1.68;100.00;98840.19;5007267;28;20018;-58
2022/03/10 02:06:03;;;;;;;41.35;8.63;;;;;;;1.51;100.00;98842.63;5008163;28;20610;-56
2022/03/10 02:11:13;;;;;;;34.72;7.25;;;;;;;1.32;100.00;98841.59;5006833;28;20064;-58
2022/03/10 02:13:38;;;;;;;34.05;6.60;;;;;;;1.58;100.00;98844.41;5007777;28;20124;-59
2022/03/10 02:18:47;;;;;;;40.03;7.90;;;;;;;0.99;100.00;98852.38;5007570;28;20032;-56
2022/03/10 02:21:14;;;;;;;44.50;8.18;;;;;;;0.96;100.00;98848.94;5007557;28;20624;-58
2022/03/10 02:23:39;;;;;;;40.20;8.90;;;;;;;1.06;100.00;98844.75;5008436;28;20021;-58
2022/03/10 02:26:05;;;;;;;41.30;8.43;;;;;;;1.20;100.00;98850.06;5006504;28;20096;-60
2022/03/10 02:28:32;;;;;;;38.55;7.63;;;;;;;1.36;100.00;98848.50;5007801;28;20522;-56
2022/03/10 02:30:58;;;;;;;42.17;8.98;;;;;;;1.22;100.00;98850.06;5009053;28;20048;-57
2022/03/10 02:33:24;;;;;;;40.33;7.82;;;;;;;1.30;100.00;98851.00;5005238;28;20026;-58
2022/03/10 02:35:49;;;;;;;35.97;6.90;;;;;;;1.30;100.00;98849.28;5004025;28;20154;-56
2022/03/10 02:38:18;;;;;;;46.30;9.15;;;;;;;1.03;100.00;98849.00;5007824;28;20029;-57
2022/03/10 02:40:45;;;;;;;48.25;8.57;;;;;;;1.24;100.00;98856.09;5007659;28;20500;-56
2022/03/10 02:43:11;;;;;;;35.55;7.10;;;;;;;1.15;100.00;98850.00;5007650;28;20060;-58
2022/03/10 02:45:36;;;;;;;45.83;8.50;;;;;;;1.05;100.00;98857.59;5005230;28;20605;-57
2022/03/10 02:48:02;;;;;;;39.83;7.45;;;;;;;0.92;100.00;98857.47;5006173;28;20075;-58
2022/03/10 02:50:27;;;;;;;45.33;8.88;;;;;;;0.73;100.00;98868.34;5005516;28;20176;-56
2022/03/10 02:52:53;;;;;;;39.60;6.68;;;;;;;1.25;100.00;98865.50;5004857;28;20120;-58
2022/03/10 02:55:18;;;;;;;45.63;8.95;;;;;;;0.77;100.00;98870.13;5005716;28;20058;-57
2022/03/10 02:57:44;;;;;;;40.75;8.05;;;;;;;0.96;100.00;98866.94;5006159;28;20030;-58
2022/03/10 03:00:09;;;;;;;38.45;8.23;;;;;;;0.84;100.00;98864.22;5006649;28;20104;-57
2022/03/10 03:02:35;;;;;;;36.40;7.55;;;;;;;1.04;100.00;98866.16;5007130;28;20392;-58
2022/03/10 03:05:01;;;;;;;51.22;8.77;;;;;;;0.90;100.00;98864.31;5004819;28;20440;-57
2022/03/10 03:07:26;;;;;;;41.35;8.45;;;;;;;0.84;100.00;98868.50;5005581;28;20148;-58
2022/03/10 03:09:52;;;;;;;37.65;6.28;;;;;;;1.18;100.00;98864.59;5005961;28;20054;-56
2022/03/10 03:12:17;;;;;;;52.97;8.32;;;;;;;1.30;100.00;98869.84;5006035;28;20069;-56
2022/03/10 03:14:42;;;;;;;48.75;7.10;;;;;;;1.55;100.00;98870.09;5004887;28;20030;-55
2022/03/10 03:17:08;;;;;;;51.83;9.38;;;;;;;1.16;100.00;98874.00;5003694;28;20040;-57
2022/03/10 03:19:34;;;;;;;36.22;7.97;;;;;;;0.96;100.00;98874.63;5008128;28;20493;-58
2022/03/10 03:21:59;;;;;;;41.97;9.10;;;;;;;0.74;100.00;98877.81;5007932;28;20029;-58
2022/03/10 03:24:24;;;;;;;50.17;9.48;;;;;;;0.76;100.00;98882.09;5007096;28;20029;-56
2022/03/10 03:26:50;;;;;;;46.05;8.35;;;;;;;0.77;100.00;98883.84;5006859;28;20030;-58
2022/03/10 03:29:15;;;;;;;41.30;8.75;;;;;;;0.81;100.00;98883.84;5006065;28;20064;-57
2022/03/10 03:31:41;;;;;;;35.97;7.78;;;;;;;0.75;100.00;98884.63;5006147;28;20041;-57
2022/03/10 03:34:09;;;;;;;44.88;9.65;;;;;;;0.36;100.00;98893.53;5006432;28;20030;-56
2022/03/10 03:36:37;;;;;;;41.22;9.30;;;;;;;0.47;100.00;98886.84;5006166;28;20110;-58
2022/03/10 03:39:02;;;;;;;43.30;9.02;;;;;;;0.55;100.00;98881.81;5006806;28;20025;-57
2022/03/10 03:41:28;;;;;;;47.30;9.50;;;;;;;0.43;100.00;98900.50;5003927;28;20699;-56
2022/03/10 03:43:53;;;;;;;38.53;8.60;;;;;;;0.50;100.00;98889.47;5005741;28;20030;-58
2022/03/10 03:46:19;;;;;;;40.45;8.43;;;;;;;0.35;100.00;98892.69;5006063;28;20728;-57
2022/03/10 03:48:45;;;;;;;44.83;9.73;;;;;;;0.40;100.00;98897.88;5007292;28;20121;-58
2022/03/10 03:51:11;;;;;;;31.33;6.20;;;;;;;0.67;100.00;98893.97;5003114;28;20042;-57
2022/03/10 03:53:36;;;;;;;40.58;8.10;;;;;;;0.72;100.00;98894.91;5006309;28;20017;-56
2022/03/10 03:56:02;;;;;;;38.80;8.85;;;;;;;0.58;100.00;98898.13;5003611;28;20033;-57
2022/03/10 03:58:27;;;;;;;42.83;8.50;;;;;;;0.99;100.00;98894.34;5006310;28;20520;-57
2022/03/10 04:00:53;;;;;;;31.08;6.45;;;;;;;0.73;100.00;98896.59;5004189;28;20038;-56
2022/03/10 04:03:18;;;;;;;32.75;6.60;;;;;;;0.88;100.00;98893.38;5007099;28;20901;-58
2022/03/10 04:05:43;;;;;;;37.55;7.90;;;;;;;0.92;100.00;98898.56;5003473;28;20049;-58
2022/03/10 04:08:09;;;;;;;40.55;7.93;;;;;;;1.14;100.00;98906.53;5006241;28;20026;-57
2022/03/10 04:10:34;;;;;;;41.05;7.85;;;;;;;0.93;100.00;98905.41;5006574;28;20042;-56
2022/03/10 04:13:00;;;;;;;34.45;7.85;;;;;;;0.92;100.00;98903.72;5005181;28;20030;-57
2022/03/10 04:15:26;;;;;;;41.30;8.60;;;;;;;1.03;100.00;98897.81;5004515;28;20031;-58
2022/03/10 04:17:51;;;;;;;40.13;8.32;;;;;;;0.86;100.00;98903.59;5006055;28;20025;-57
2022/03/10 04:20:16;;;;;;;37.88;8.25;;;;;;;0.71;100.00;98898.28;5004506;28;20049;-55
2022/03/10 04:22:43;;;;;;;39.63;8.70;;;;;;;0.71;100.00;98903.44;5004411;28;20026;-58
2022/03/10 04:25:09;;;;;;;36.88;8.40;;;;;;;0.64;100.00;98906.75;5003806;28;20037;-57
2022/03/10 04:27:35;;;;;;;36.53;8.27;;;;;;;0.73;100.00;98896.59;5008896;28;20032;-58
2022/03/10 04:30:00;;;;;;;35.70;6.68;;;;;;;0.78;100.00;98894.97;5006459;28;20021;-57
2022/03/10 04:32:26;;;;;;;31.75;5.55;;;;;;;1.30;100.00;98900.69;5004987;28;20080;-58
2022/03/10 04:34:52;;;;;;;56.55;9.07;;;;;;;0.82;100.00;98901.84;5006272;28;20030;-56
2022/03/10 04:37:17;;;;;;;39.63;6.85;;;;;;;1.17;100.00;98893.69;5004309;28;20095;-57
2022/03/10 04:39:42;;;;;;;39.67;8.88;;;;;;;0.90;100.00;98892.56;5005129;28;20025;-57
2022/03/10 04:42:08;;;;;;;39.88;7.72;;;;;;;1.12;100.00;98896.25;5002375;28;20174;-58
2022/03/10 04:44:33;;;;;;;33.42;6.55;;;;;;;0.90;100.00;98887.41;5005506;28;20022;-59
2022/03/10 04:46:58;;;;;;;39.45;6.20;;;;;;;1.60;100.00;98894.16;5004077;28;20038;-57
2022/03/10 04:49:24;;;;;;;35.55;7.53;;;;;;;1.34;100.00;98891.31;5005613;28;20412;-57
2022/03/10 04:51:49;;;;;;;37.45;7.80;;;;;;;1.63;100.00;98888.16;5006748;28;20177;-58
2022/03/10 04:54:15;;;;;;;40.00;9.05;;;;;;;1.20;100.00;98893.75;5005594;28;20026;-58
2022/03/10 04:56:40;;;;;;;36.28;7.05;;;;;;;1.05;100.00;98888.41;5002348;28;20173;-57
2022/03/10 04:59:06;;;;;;;30.98;5.95;;;;;;;1.70;100.00;98893.38;5006387;28;20105;-57
2022/03/10 05:01:31;;;;;;;27.08;6.05;;;;;;;1.45;100.00;98899.13;5007672;28;20077;-57
2022/03/10 05:03:56;;;;;;;40.03;7.40;;;;;;;1.48;100.00;98909.44;5008345;28;20026;-56
2022/03/10 05:06:22;;;;;;;32.30;6.95;;;;;;;1.76;100.00;98909.72;5008356;28;20040;-59
2022/03/10 05:08:48;;;;;;;37.85;8.50;;;;;;;0.85;100.00;98909.59;5009112;28;20092;-56
2022/03/10 05:11:13;;;;;;;41.20;6.30;;;;;;;2.05;100.00;98908.22;5010052;28;20525;-57
2022/03/10 05:13:38;;;;;;;32.92;6.43;;;;;;;1.89;100.00;98908.97;5008392;28;20137;-58
2022/03/10 05:16:04;;;;;;;34.72;7.30;;;;;;;1.93;100.00;98909.00;5007046;28;20044;-58
2022/03/10 05:18:29;;;;;;;35.30;9.02;;;;;;;0.63;100.00;98907.63;5007516;28;20026;-56
2022/03/10 05:20:55;;;;;;;28.63;6.20;;;;;;;1.64;100.00;98911.31;5007542;28;20041;-57
2022/03/10 05:23:20;;;;;;;30.35;5.93;;;;;;;1.89;100.00;98909.84;5009025;28;20476;-57
2022/03/10 05:25:46;;;;;;;32.95;6.05;;;;;;;1.78;100.00;98913.16;4988685;28;20042;-57
2022/03/10 05:28:13;;;;;;;30.75;7.53;;;;;;;1.30;100.00;98912.69;5009772;28;20133;-57
2022/03/10 05:30:43;;;;;;;35.53;6.40;;;;;;;1.52;100.00;98913.78;5009702;28;20038;-57
2022/03/10 05:33:09;;;;;;;36.30;7.85;;;;;;;1.14;100.00;98915.09;5009258;28;20026;-58
2022/03/10 05:35:35;;;;;;;33.65;6.53;;;;;;;1.86;100.00;98924.41;5009418;28;20049;-57
2022/03/10 05:38:00;;;;;;;42.05;8.95;;;;;;;1.02;100.00;98919.22;5009279;28;20413;-56
2022/03/10 05:40:26;;;;;;;36.85;7.50;;;;;;;0.28;100.00;98920.81;5007675;28;20814;-57
2022/03/10 05:42:53;;;;;;;35.75;8.25;;;;;;;-0.13;100.00;98921.00;5010096;28;20075;-58
2022/03/10 05:45:20;;;;;;;42.60;8.88;;;;;;;-0.53;100.00;98922.88;5007392;28;20056;-56
2022/03/10 05:47:56;;;;;;;50.50;9.52;;;;;;;-0.37;100.00;98929.16;5011072;28;20022;-58
2022/03/10 05:50:24;;;;;;;44.00;8.70;;;;;;;-0.74;100.00;98929.34;5009556;28;20037;-57
2022/03/10 05:52:50;;;;;;;45.63;9.38;;;;;;;-0.23;100.00;98928.56;5007697;28;20800;-57
2022/03/10 05:55:16;;;;;;;49.78;8.75;;;;;;;0.03;100.00;98925.56;5007745;28;20029;-57
2022/03/10 05:57:42;;;;;;;44.60;9.70;;;;;;;-0.35;100.00;98930.91;5009917;28;20065;-57
2022/03/10 06:00:10;;;;;;;42.05;7.70;;;;;;;0.25;100.00;98928.47;5007734;28;20021;-57
2022/03/10 06:02:36;;;;;;;50.05;9.30;;;;;;;0.37;100.00;98931.22;5009335;28;20147;-57
2022/03/10 06:05:02;;;;;;;56.42;9.82;;;;;;;0.75;100.00;98920.59;5007470;28;20021;-55
2022/03/10 06:07:28;;;;;;;41.38;9.52;;;;;;;1.65;100.00;98923.31;5005317;28;20042;-60
2022/03/10 06:09:55;;;;;;;44.42;10.15;;;;;;;1.72;100.00;98917.38;5006894;28;20996;-59
2022/03/10 06:12:25;;;;;;;45.42;9.55;;;;;;;1.79;100.00;98914.91;5008181;28;20523;-59
2022/03/10 06:14:59;;;;;;;55.95;10.77;;;;;;;1.33;100.00;98911.00;5005477;28;20044;-60
2022/03/10 06:17:25;;;;;;;48.83;12.13;;;;;;;2.16;100.00;98912.63;5008051;28;20049;-59
2022/03/10 06:19:51;;;;;;;53.88;11.50;;;;;;;4.11;100.00;98909.84;5008143;28;20029;-59
2022/03/10 06:22:18;;;;;;;37.95;10.77;;;;;;;5.14;100.00;98910.44;5007237;28;20065;-57
2022/03/10 06:24:44;;;;;;;48.08;12.48;;;;;;;5.65;100.00;98909.31;5005929;28;20682;-57
2022/03/10 06:27:10;;;;;;;47.85;11.98;;;;;;;6.98;86.63;98912.44;5006062;28;20050;-57
2022/03/10 06:29:38;;;;;;;33.42;11.20;;;;;;;7.72;84.07;98916.66;5008333;28;20031;-57
2022/03/10 06:32:04;;;;;;;38.30;10.75;;;;;;;9.31;71.40;98913.84;5006657;28;20033;-56
2022/03/10 06:34:29;;;;;;;43.55;11.63;;;;;;;9.67;66.77;98912.19;5007112;28;20044;-58
2022/03/10 06:36:56;;;;;;;46.25;11.13;;;;;;;10.99;59.81;98910.59;5004990;28;20133;-57
2022/03/10 06:39:22;;;;;;;34.97;10.38;;;;;;;10.78;54.76;98912.06;5007639;28;20038;-57
2022/03/10 06:41:47;;;;;;;31.55;9.77;;;;;;;12.32;50.48;98912.66;5014605;28;20104;-58
2022/03/10 06:44:12;;;;;;;34.40;10.20;;;;;;;12.38;49.73;98912.47;5008639;28;20897;-57
2022/03/10 06:46:38;;;;;;;27.63;9.05;;;;;;;13.19;45.02;98913.97;5005762;28;20056;-56
2022/03/10 06:49:03;;;;;;;34.15;10.07;;;;;;;13.43;47.12;98911.38;5004992;28;20030;-57
2022/03/10 06:51:28;;;;;;;29.55;9.55;;;;;;;15.37;42.17;98905.91;5006355;28;20558;-56
2022/03/10 06:53:54;;;;;;;31.60;9.02;;;;;;;15.04;42.02;98914.41;5005425;28;20037;-57
2022/03/10 06:56:20;;;;;;;35.60;9.90;;;;;;;14.88;40.03;98914.22;5004572;28;20034;-57
2022/03/10 06:58:45;;;;;;;27.30;9.32;;;;;;;15.27;38.68;98910.72;5007422;28;20047;-58
2022/03/10 07:01:10;;;;;;;32.45;10.07;;;;;;;15.85;37.59;98925.59;5003907;28;20045;-57
2022/03/10 07:03:36;;;;;;;23.52;9.43;;;;;;;16.34;37.06;98919.72;5006641;28;20022;-59
2022/03/10 07:06:02;;;;;;;29.80;9.18;;;;;;;16.52;36.51;98925.81;5003372;28;20215;-58
2022/03/10 07:08:27;;;;;;;29.48;10.70;;;;;;;17.35;35.19;98929.47;5007171;28;20054;-59
2022/03/10 07:10:52;;;;;;;26.58;9.80;;;;;;;18.29;33.81;98918.97;5007610;28;20121;-59
2022/03/10 07:13:18;;;;;;;23.73;9.55;;;;;;;17.50;34.20;98922.50;5008124;28;20120;-59
2022/03/10 07:15:43;;;;;;;27.30;9.68;;;;;;;18.30;33.10;98923.28;5004597;28;20039;-58
2022/03/10 07:18:08;;;;;;;20.58;8.73;;;;;;;18.25;33.26;98930.63;5005945;28;20056;-58
2022/03/10 07:20:34;;;;;;;26.23;9.70;;;;;;;16.66;35.24;98936.50;5005310;28;20048;-57
2022/03/10 07:22:59;;;;;;;19.85;9.13;;;;;;;18.56;33.18;98929.69;5006107;28;20025;-60
2022/03/10 07:25:25;;;;;;;24.98;9.60;;;;;;;18.39;32.34;98929.84;5007231;28;20022;-58
2022/03/10 07:27:50;;;;;;;22.98;9.70;;;;;;;19.81;30.05;98930.03;5007748;28;20025;-60
2022/03/10 07:30:16;;;;;;;18.30;7.28;;;;;;;20.21;31.73;98933.59;5007318;28;20029;-58
2022/03/10 07:32:41;;;;;;;18.02;8.27;;;;;;;17.90;34.80;98942.28;5006046;28;20205;-58
2022/03/10 07:35:07;;;;;;;22.42;8.50;;;;;;;20.52;33.18;98936.88;5005461;28;20025;-57
2022/03/10 07:37:32;;;;;;;20.58;8.85;;;;;;;21.91;28.50;98922.81;5007361;28;20642;-58
2022/03/10 07:39:59;;;;;;;16.63;8.38;;;;;;;19.67;30.35;98933.56;5005409;28;20038;-59
2022/03/10 07:42:24;;;;;;;25.90;9.90;;;;;;;21.31;28.49;98935.03;5004662;28;20133;-59
2022/03/10 07:44:49;;;;;;;24.48;9.70;;;;;;;20.29;29.03;98929.59;5005378;28;20116;-57
2022/03/10 07:47:15;;;;;;;19.83;8.98;;;;;;;19.44;30.97;98937.63;5005981;28;20127;-57
2022/03/10 07:49:40;;;;;;;25.52;9.60;;;;;;;20.81;29.71;98934.09;5008031;28;20030;-58
2022/03/10 07:52:08;;;;;;;19.42;9.35;;;;;;;19.54;29.60;98943.22;5006912;28;20026;-58
2022/03/10 07:54:34;;;;;;;17.08;8.82;;;;;;;20.16;29.15;98948.97;5003801;28;20033;-59
2022/03/10 07:57:00;;;;;;;24.60;9.32;;;;;;;21.52;28.88;98939.78;5004696;28;20088;-57
2022/03/10 07:59:25;;;;;;;18.17;9.30;;;;;;;21.09;28.67;98937.50;5006313;28;20041;-58
2022/03/10 08:01:51;;;;;;;22.10;9.68;;;;;;;22.46;27.28;98932.97;5006632;28;20038;-58
2022/03/10 08:04:16;;;;;;;17.25;8.65;;;;;;;19.51;30.25;98932.81;5007327;28;20148;-56
2022/03/10 08:06:42;;;;;;;16.75;9.18;;;;;;;19.54;29.06;98937.94;5003824;28;20038;-58
2022/03/10 08:09:10;;;;;;;21.23;9.90;;;;;;;18.56;30.20;98928.84;5007950;28;20084;-58
2022/03/10 08:11:36;;;;;;;19.13;9.07;;;;;;;19.51;30.35;98922.25;5005079;28;20049;-58
2022/03/10 08:14:03;;;;;;;20.73;9.70;;;;;;;16.24;32.65;98929.84;5005517;28;20054;-58
2022/03/10 08:16:28;;;;;;;20.92;9.43;;;;;;;20.30;29.90;98924.19;5004835;28;20041;-58
2022/03/10 08:18:53;;;;;;;23.90;9.48;;;;;;;19.83;29.62;98923.72;5005634;28;20445;-58
2022/03/10 08:21:18;;;;;;;21.15;9.70;;;;;;;20.24;30.19;98914.03;5004502;28;20109;-58
2022/03/10 08:23:44;;;;;;;19.90;9.25;;;;;;;21.30;28.38;98912.13;5008151;28;20052;-59
2022/03/10 08:26:09;;;;;;;22.08;9.68;;;;;;;21.09;28.61;98913.63;5003937;28;20397;-57
2022/03/10 08:28:36;;;;;;;19.95;9.23;;;;;;;20.96;27.70;98913.63;5007093;28;20059;-58
2022/03/10 08:31:04;;;;;;;18.02;9.23;;;;;;;22.43;26.34;98920.78;5007660;28;20555;-59
2022/03/10 08:33:30;;;;;;;19.23;9.75;;;;;;;21.82;27.21;98923.47;5005602;28;20216;-57
2022/03/10 08:35:55;;;;;;;22.08;9.98;;;;;;;21.58;27.12;98926.09;5004899;28;20136;-58
2022/03/10 08:38:20;;;;;;;21.63;9.35;;;;;;;24.92;24.64;98917.78;5007535;28;20095;-57
2022/03/10 08:40:46;;;;;;;20.65;10.02;;;;;;;22.52;26.52;98922.75;5006612;28;20033;-58
2022/03/10 08:43:12;;;;;;;20.77;9.57;;;;;;;21.97;27.07;98925.97;5004033;28;20021;-59
2022/03/10 08:45:38;;;;;;;21.80;9.95;;;;;;;22.13;26.62;98923.91;5003338;28;20140;-59
2022/03/10 08:48:04;;;;;;;20.10;9.55;;;;;;;21.38;27.10;98930.16;5004647;28;20033;-57
2022/03/10 08:50:30;;;;;;;21.52;9.88;;;;;;;24.67;24.69;98919.06;5004444;28;20238;-57
2022/03/10 08:52:56;;;;;;;19.52;9.32;;;;;;;22.39;26.67;98921.97;5006017;28;20124;-58
2022/03/10 08:55:22;;;;;;;22.83;9.63;;;;;;;20.81;28.45;98923.47;5003549;28;20068;-57
2022/03/10 08:57:48;;;;;;;20.60;9.38;;;;;;;24.40;25.09;98921.19;5006682;28;20777;-57
2022/03/10 09:00:14;;;;;;;22.55;9.52;;;;;;;21.47;27.70;98923.38;5004520;28;20429;-58
2022/03/10 09:02:42;;;;;;;20.58;8.80;;;;;;;23.25;27.12;98923.38;5005425;28;20252;-59
2022/03/10 09:05:09;;;;;;;18.20;9.32;;;;;;;19.50;30.68;98920.53;5003544;28;20029;-59
2022/03/10 09:07:35;;;;;;;21.38;10.18;;;;;;;21.16;27.97;98917.53;5004117;28;20265;-59
2022/03/10 09:10:01;;;;;;;20.60;9.50;;;;;;;19.04;30.42;98919.81;5005203;28;20553;-59
2022/03/10 09:12:27;;;;;;;19.08;9.20;;;;;;;20.31;29.05;98917.09;5006141;28;20527;-59
2022/03/10 09:14:53;;;;;;;26.33;9.18;;;;;;;20.84;32.32;98912.66;5004404;28;20033;-59
2022/03/10 09:17:19;;;;;;;19.40;9.27;;;;;;;21.88;28.05;98911.56;5002659;28;20034;-59
2022/03/10 09:19:44;;;;;;;19.35;9.02;;;;;;;22.80;27.31;98907.34;5005199;28;20026;-60
2022/03/10 09:22:10;;;;;;;19.48;9.35;;;;;;;23.64;25.88;98909.69;5002988;28;20068;-59
2022/03/10 09:24:35;;;;;;;18.95;9.43;;;;;;;21.26;27.92;98901.81;5006661;28;20424;-59
2022/03/10 09:27:01;;;;;;;20.08;9.38;;;;;;;19.85;28.93;98905.09;5001938;28;20129;-60
2022/03/10 09:29:26;;;;;;;21.60;9.18;;;;;;;19.79;28.79;98901.03;5005594;28;20470;-59
2022/03/10 09:31:52;;;;;;;20.63;9.52;;;;;;;19.58;29.73;98897.09;5003314;28;20042;-59
2022/03/10 09:34:17;;;;;;;16.73;6.90;;;;;;;22.11;36.86;98881.50;5004996;28;20148;-58
2022/03/10 09:36:43;;;;;;;23.02;10.00;;;;;;;20.29;28.74;98896.03;5003728;28;20039;-59
2022/03/10 09:39:09;;;;;;;21.55;9.93;;;;;;;20.63;28.98;98891.13;5004736;28;20110;-59
2022/03/10 09:41:37;;;;;;;20.27;9.48;;;;;;;19.86;29.39;98892.69;5002857;28;20272;-60
2022/03/10 09:44:11;;;;;;;23.83;10.02;;;;;;;20.75;27.55;98894.72;5002925;28;20285;-60
2022/03/10 09:46:37;;;;;;;20.23;9.20;;;;;;;22.61;26.24;98878.66;5005626;28;20531;-59
2022/03/10 09:49:03;;;;;;;21.33;9.43;;;;;;;20.02;28.60;98896.03;5005943;28;20222;-58
2022/03/10 09:51:29;;;;;;;18.80;8.32;;;;;;;18.11;29.12;98881.28;5009186;28;20285;-60
2022/03/10 09:53:54;;;;;;;24.95;9.80;;;;;;;18.76;29.88;98888.03;5010737;28;20436;-58
2022/03/10 09:56:20;;;;;;;22.58;9.65;;;;;;;20.62;27.86;98893.88;5005717;28;20038;-60
2022/03/10 09:58:45;;;;;;;23.98;9.63;;;;;;;22.47;26.13;98882.34;5008774;28;20587;-59
2022/03/10 10:01:11;;;;;;;25.55;10.00;;;;;;;19.72;28.42;98882.97;5006929;28;20488;-59
2022/03/10 10:03:36;;;;;;;22.70;9.50;;;;;;;21.46;26.36;98872.06;5006926;28;20065;-59
2022/03/10 10:06:03;;;;;;;24.42;10.63;;;;;;;18.04;30.57;98879.94;5005191;28;20241;-58
2022/03/10 10:08:31;;;;;;;26.17;10.27;;;;;;;19.75;28.46;98875.69;5008830;28;20048;-59
2022/03/10 10:10:59;;;;;;;25.83;9.63;;;;;;;18.12;29.72;98872.41;5006546;28;20045;-58
2022/03/10 10:13:35;;;;;;;22.63;9.30;;;;;;;20.91;27.76;98874.16;5005775;28;20033;-59
2022/03/10 10:16:04;;;;;;;21.63;9.30;;;;;;;19.55;28.13;98865.53;5006180;28;20765;-58
2022/03/10 10:18:30;;;;;;;24.25;9.77;;;;;;;19.89;27.63;98871.28;5006513;28;20518;-59
2022/03/10 10:20:56;;;;;;;24.50;9.68;;;;;;;18.74;29.17;98879.34;5007335;28;20037;-59
2022/03/10 10:23:29;;;;;;;32.97;10.20;;;;;;;19.14;28.19;98871.66;5008866;28;20021;-58
2022/03/10 10:25:56;;;;;;;27.25;10.07;;;;;;;18.98;28.69;98867.28;5004572;28;20114;-58
2022/03/10 10:28:35;;;;;;;30.67;9.63;;;;;;;18.61;28.95;98866.84;5007523;28;20064;-59
2022/03/10 10:31:04;;;;;;;28.58;9.88;;;;;;;19.57;28.11;98868.91;5006849;28;20385;-59
2022/03/10 10:33:32;;;;;;;26.33;9.35;;;;;;;21.29;26.35;98861.81;5007418;28;20036;-59
2022/03/10 10:36:19;;;;;;;25.35;9.43;;;;;;;19.93;26.64;98865.72;5005145;28;20045;-57
2022/03/10 10:38:47;;;;;;;26.80;9.13;;;;;;;19.37;27.90;98867.53;5006599;28;20068;-58
2022/03/10 10:41:23;;;;;;;25.95;8.38;;;;;;;17.62;28.59;98865.56;5008018;28;20034;-58
2022/03/10 10:43:56;;;;;;;30.77;9.98;;;;;;;18.86;27.69;98860.97;5007184;28;20631;-57
2022/03/10 10:46:22;;;;;;;25.42;9.23;;;;;;;19.03;27.62;98857.28;5005633;28;20033;-57
2022/03/10 10:48:47;;;;;;;30.27;9.85;;;;;;;17.24;29.00;98858.84;5007809;28;20022;-57
2022/03/10 10:51:13;;;;;;;27.85;9.40;;;;;;;19.74;27.27;98851.97;5008476;28;20246;-58
2022/03/10 10:53:39;;;;;;;32.22;9.77;;;;;;;19.10;27.28;98848.97;5006792;28;20128;-58
2022/03/10 10:56:05;;;;;;;26.20;9.02;;;;;;;18.00;28.24;98852.00;5005540;28;20502;-57
2022/03/10 10:58:31;;;;;;;30.65;9.48;;;;;;;17.89;28.07;98850.81;5005865;28;20467;-56
2022/03/10 11:00:57;;;;;;;34.95;9.73;;;;;;;15.81;31.31;98850.38;5021383;28;20076;-56
2022/03/10 11:03:26;;;;;;;28.88;9.13;;;;;;;15.86;31.09;98856.28;5008014;28;20117;-57
2022/03/10 11:05:53;;;;;;;32.97;9.80;;;;;;;17.46;29.30;98847.97;5006410;28;20463;-57
2022/03/10 11:08:24;;;;;;;28.85;9.18;;;;;;;16.41;29.56;98844.72;5007665;28;20037;-57
2022/03/10 11:10:50;;;;;;;33.92;9.82;;;;;;;16.89;29.95;98852.81;5006490;28;20057;-56
2022/03/10 11:13:15;;;;;;;24.35;8.27;;;;;;;17.00;29.04;98841.69;5008832;28;20994;-58
2022/03/10 11:15:42;;;;;;;35.60;9.93;;;;;;;15.96;30.63;98839.09;5006290;28;20108;-59
2022/03/10 11:18:13;;;;;;;31.05;10.10;;;;;;;16.38;30.53;98835.22;5007544;28;20030;-58
2022/03/10 11:20:48;;;;;;;33.03;10.02;;;;;;;16.79;30.13;98831.34;5006163;28;20037;-58
2022/03/10 11:23:19;;;;;;;33.03;9.55;;;;;;;17.24;28.68;98824.56;5006103;28;20568;-57
2022/03/10 11:25:51;;;;;;;33.47;9.55;;;;;;;17.49;28.65;98816.13;5004388;28;20048;-57